Main page
METAR-TAF:

METAR-TAF

Airports :

Esenboğa International Airport

Ankara Esenboğa, Turkey

latitude: 40-07N, longitude: 032-59E, elevation: 953 m

Current weather observation

The report was made 41 minutes ago, at 08:20 UTC
Wind 3 kt from variable directions
Temperature 8°C
Humidity 61%
Pressure 1023 hPa
Visibility 10 km or more
Scattered clouds at a height of 2500 ft
Broken clouds at a height of 8000 ft

METAR: LTAC 180820Z VRB03KT 9999 SCT025 BKN080 08/01 Q1023 NOSIG RMK RWY21L VRB02KT RWY03L 01003KT 310V070 RWY21R 02003KT

Time: 12:01 (09:01 UTC)

Forecast

The report was made 4 hours and 21 minutes ago, at 04:40 UTC
Forecast valid from 18 at 06 UTC to 19 at 06 UTC
Wind 2 kt from variable directions
Visibility 10 km or more
Scattered clouds at a height of 3500 ft
Broken clouds at a height of 9000 ft

TAF: LTAC 180440Z 1806/1906 VRB02KT 9999 SCT035 BKN090

Weather observations and forecasts of more than 4000 airports (METAR and TAF reports).

The available stations are represented by yellow and red dots on the map.

Hover mouse over dot to see the name of the station.

Then click to see weather observations and forecasts.

To change the map : click on the green buttons with a black cross to zoom in, on the green button with a dash to zoom out, or on the green arrows for adjacent maps.


METAR-TAF: